sensor_id;sensor_type;location;lat;lon;timestamp;P1;durP1;ratioP1;P2;durP2;ratioP2
15931;SDS011;8065;49.520;11.284;2023-03-21T00:01:32;10.87;;;8.00;;
15931;SDS011;8065;49.520;11.284;2023-03-21T00:03:59;9.83;;;7.47;;
15931;SDS011;8065;49.520;11.284;2023-03-21T00:06:25;9.10;;;7.87;;
15931;SDS011;8065;49.520;11.284;2023-03-21T00:08:53;8.23;;;7.10;;
15931;SDS011;8065;49.520;11.284;2023-03-21T00:11:19;8.30;;;6.87;;
15931;SDS011;8065;49.520;11.284;2023-03-21T00:13:46;8.93;;;7.57;;
15931;SDS011;8065;49.520;11.284;2023-03-21T00:16:14;9.47;;;7.37;;
15931;SDS011;8065;49.520;11.284;2023-03-21T00:18:43;10.07;;;7.17;;
15931;SDS011;8065;49.520;11.284;2023-03-21T00:21:11;8.27;;;7.10;;
15931;SDS011;8065;49.520;11.284;2023-03-21T00:23:40;8.77;;;7.33;;
15931;SDS011;8065;49.520;11.284;2023-03-21T00:26:09;8.70;;;6.63;;
15931;SDS011;8065;49.520;11.284;2023-03-21T00:28:36;7.47;;;6.63;;
15931;SDS011;8065;49.520;11.284;2023-03-21T00:31:03;8.13;;;7.30;;
15931;SDS011;8065;49.520;11.284;2023-03-21T00:33:30;8.13;;;6.80;;
15931;SDS011;8065;49.520;11.284;2023-03-21T00:35:56;9.87;;;6.43;;
15931;SDS011;8065;49.520;11.284;2023-03-21T00:38:23;8.20;;;6.13;;
15931;SDS011;8065;49.520;11.284;2023-03-21T00:40:50;11.67;;;7.07;;
15931;SDS011;8065;49.520;11.284;2023-03-21T00:43:18;8.33;;;6.60;;
15931;SDS011;8065;49.520;11.284;2023-03-21T00:45:47;8.33;;;6.70;;
15931;SDS011;8065;49.520;11.284;2023-03-21T00:48:14;8.27;;;6.97;;
15931;SDS011;8065;49.520;11.284;2023-03-21T00:50:41;10.67;;;6.83;;
15931;SDS011;8065;49.520;11.284;2023-03-21T00:53:10;7.90;;;6.47;;
15931;SDS011;8065;49.520;11.284;2023-03-21T00:55:38;8.47;;;6.37;;
15931;SDS011;8065;49.520;11.284;2023-03-21T00:58:05;7.37;;;6.00;;
15931;SDS011;8065;49.520;11.284;2023-03-21T01:00:33;8.67;;;6.70;;
15931;SDS011;8065;49.520;11.284;2023-03-21T01:03:01;8.77;;;6.90;;
15931;SDS011;8065;49.520;11.284;2023-03-21T01:05:32;7.70;;;6.43;;
15931;SDS011;8065;49.520;11.284;2023-03-21T01:08:18;9.67;;;7.20;;
15931;SDS011;8065;49.520;11.284;2023-03-21T01:10:46;8.23;;;6.70;;
15931;SDS011;8065;49.520;11.284;2023-03-21T01:13:14;13.57;;;7.50;;
15931;SDS011;8065;49.520;11.284;2023-03-21T01:15:44;9.03;;;6.90;;
15931;SDS011;8065;49.520;11.284;2023-03-21T01:18:12;7.00;;;6.30;;
15931;SDS011;8065;49.520;11.284;2023-03-21T01:20:40;9.03;;;7.10;;
15931;SDS011;8065;49.520;11.284;2023-03-21T01:23:07;9.20;;;6.83;;
15931;SDS011;8065;49.520;11.284;2023-03-21T01:25:34;9.23;;;6.63;;
15931;SDS011;8065;49.520;11.284;2023-03-21T01:28:01;6.83;;;6.13;;
15931;SDS011;8065;49.520;11.284;2023-03-21T01:30:27;8.67;;;6.63;;
15931;SDS011;8065;49.520;11.284;2023-03-21T01:32:55;9.07;;;6.73;;
15931;SDS011;8065;49.520;11.284;2023-03-21T01:35:21;10.03;;;6.77;;
15931;SDS011;8065;49.520;11.284;2023-03-21T01:37:48;8.53;;;6.57;;
15931;SDS011;8065;49.520;11.284;2023-03-21T01:40:16;7.47;;;6.27;;
15931;SDS011;8065;49.520;11.284;2023-03-21T01:42:44;8.10;;;6.40;;
15931;SDS011;8065;49.520;11.284;2023-03-21T01:48:11;8.17;;;6.47;;
15931;SDS011;8065;49.520;11.284;2023-03-21T01:50:39;7.97;;;6.50;;
15931;SDS011;8065;49.520;11.284;2023-03-21T01:53:08;8.80;;;6.10;;
15931;SDS011;8065;49.520;11.284;2023-03-21T01:55:35;8.97;;;7.30;;
15931;SDS011;8065;49.520;11.284;2023-03-21T01:58:03;10.80;;;7.17;;
15931;SDS011;8065;49.520;11.284;2023-03-21T02:00:32;8.60;;;6.77;;
15931;SDS011;8065;49.520;11.284;2023-03-21T02:03:02;9.27;;;7.33;;
15931;SDS011;8065;49.520;11.284;2023-03-21T02:05:36;7.90;;;7.03;;
15931;SDS011;8065;49.520;11.284;2023-03-21T02:08:07;8.43;;;6.90;;
15931;SDS011;8065;49.520;11.284;2023-03-21T02:10:34;9.43;;;7.37;;
15931;SDS011;8065;49.520;11.284;2023-03-21T02:13:04;7.53;;;6.73;;
15931;SDS011;8065;49.520;11.284;2023-03-21T02:15:33;7.73;;;6.90;;
15931;SDS011;8065;49.520;11.284;2023-03-21T02:18:02;7.70;;;6.80;;
15931;SDS011;8065;49.520;11.284;2023-03-21T02:20:51;9.27;;;7.00;;
15931;SDS011;8065;49.520;11.284;2023-03-21T02:23:47;11.37;;;7.17;;
15931;SDS011;8065;49.520;11.284;2023-03-21T02:26:37;8.83;;;7.30;;
15931;SDS011;8065;49.520;11.284;2023-03-21T02:29:24;9.57;;;7.17;;
15931;SDS011;8065;49.520;11.284;2023-03-21T02:32:06;12.23;;;7.83;;
15931;SDS011;8065;49.520;11.284;2023-03-21T02:34:44;7.77;;;6.90;;
15931;SDS011;8065;49.520;11.284;2023-03-21T02:37:27;7.83;;;6.90;;
15931;SDS011;8065;49.520;11.284;2023-03-21T02:40:00;10.93;;;7.47;;
15931;SDS011;8065;49.520;11.284;2023-03-21T02:42:38;10.40;;;7.63;;
15931;SDS011;8065;49.520;11.284;2023-03-21T02:45:15;10.80;;;7.30;;
15931;SDS011;8065;49.520;11.284;2023-03-21T02:47:45;7.97;;;7.00;;
15931;SDS011;8065;49.520;11.284;2023-03-21T02:50:17;9.43;;;7.17;;
15931;SDS011;8065;49.520;11.284;2023-03-21T02:52:49;8.37;;;7.17;;
15931;SDS011;8065;49.520;11.284;2023-03-21T02:55:19;9.13;;;6.80;;
15931;SDS011;8065;49.520;11.284;2023-03-21T02:57:49;6.60;;;5.90;;
15931;SDS011;8065;49.520;11.284;2023-03-21T03:00:17;6.90;;;6.13;;
15931;SDS011;8065;49.520;11.284;2023-03-21T03:02:47;8.73;;;5.83;;
15931;SDS011;8065;49.520;11.284;2023-03-21T03:05:15;7.47;;;5.70;;
15931;SDS011;8065;49.520;11.284;2023-03-21T03:07:46;7.70;;;5.83;;
15931;SDS011;8065;49.520;11.284;2023-03-21T03:10:25;10.43;;;6.47;;
15931;SDS011;8065;49.520;11.284;2023-03-21T03:13:08;7.33;;;5.80;;
15931;SDS011;8065;49.520;11.284;2023-03-21T03:15:49;8.73;;;6.70;;
15931;SDS011;8065;49.520;11.284;2023-03-21T03:18:27;8.60;;;5.90;;
15931;SDS011;8065;49.520;11.284;2023-03-21T03:20:59;9.27;;;6.30;;
15931;SDS011;8065;49.520;11.284;2023-03-21T03:23:36;8.83;;;6.40;;
15931;SDS011;8065;49.520;11.284;2023-03-21T03:26:10;6.67;;;5.93;;
15931;SDS011;8065;49.520;11.284;2023-03-21T03:28:43;6.70;;;5.73;;
15931;SDS011;8065;49.520;11.284;2023-03-21T03:31:15;9.33;;;5.90;;
15931;SDS011;8065;49.520;11.284;2023-03-21T03:33:49;7.67;;;5.60;;
15931;SDS011;8065;49.520;11.284;2023-03-21T03:36:19;8.37;;;6.10;;
15931;SDS011;8065;49.520;11.284;2023-03-21T03:38:50;6.03;;;5.43;;
15931;SDS011;8065;49.520;11.284;2023-03-21T03:41:20;8.33;;;6.10;;
15931;SDS011;8065;49.520;11.284;2023-03-21T03:43:51;9.63;;;6.47;;
15931;SDS011;8065;49.520;11.284;2023-03-21T03:46:22;9.37;;;5.93;;
15931;SDS011;8065;49.520;11.284;2023-03-21T03:48:53;8.27;;;6.20;;
15931;SDS011;8065;49.520;11.284;2023-03-21T03:51:24;8.03;;;6.13;;
15931;SDS011;8065;49.520;11.284;2023-03-21T03:53:56;7.20;;;6.13;;
15931;SDS011;8065;49.520;11.284;2023-03-21T03:56:25;7.57;;;6.80;;
15931;SDS011;8065;49.520;11.284;2023-03-21T03:58:54;6.27;;;5.67;;
15931;SDS011;8065;49.520;11.284;2023-03-21T04:01:21;7.13;;;6.23;;
15931;SDS011;8065;49.520;11.284;2023-03-21T04:03:48;8.20;;;6.40;;
15931;SDS011;8065;49.520;11.284;2023-03-21T04:06:15;9.57;;;6.37;;
15931;SDS011;8065;49.520;11.284;2023-03-21T04:08:42;7.20;;;5.57;;
15931;SDS011;8065;49.520;11.284;2023-03-21T04:11:11;9.37;;;6.67;;
15931;SDS011;8065;49.520;11.284;2023-03-21T04:13:38;9.00;;;6.37;;
15931;SDS011;8065;49.520;11.284;2023-03-21T04:16:05;7.40;;;6.50;;
15931;SDS011;8065;49.520;11.284;2023-03-21T04:18:32;7.50;;;6.40;;
15931;SDS011;8065;49.520;11.284;2023-03-21T04:20:59;8.03;;;6.47;;
15931;SDS011;8065;49.520;11.284;2023-03-21T04:23:26;10.27;;;7.03;;
15931;SDS011;8065;49.520;11.284;2023-03-21T04:25:53;9.30;;;6.97;;
15931;SDS011;8065;49.520;11.284;2023-03-21T04:28:21;8.63;;;6.67;;
15931;SDS011;8065;49.520;11.284;2023-03-21T04:30:47;12.23;;;6.93;;
15931;SDS011;8065;49.520;11.284;2023-03-21T04:33:15;6.90;;;6.13;;
15931;SDS011;8065;49.520;11.284;2023-03-21T04:35:41;8.47;;;7.13;;
15931;SDS011;8065;49.520;11.284;2023-03-21T04:38:09;9.47;;;6.93;;
15931;SDS011;8065;49.520;11.284;2023-03-21T04:40:36;8.77;;;7.10;;
15931;SDS011;8065;49.520;11.284;2023-03-21T04:43:02;10.53;;;7.27;;
15931;SDS011;8065;49.520;11.284;2023-03-21T04:45:30;7.93;;;6.93;;
15931;SDS011;8065;49.520;11.284;2023-03-21T04:47:56;9.63;;;6.97;;
15931;SDS011;8065;49.520;11.284;2023-03-21T04:50:23;9.63;;;7.20;;
15931;SDS011;8065;49.520;11.284;2023-03-21T04:52:49;8.47;;;6.67;;
15931;SDS011;8065;49.520;11.284;2023-03-21T04:55:16;9.90;;;7.00;;
15931;SDS011;8065;49.520;11.284;2023-03-21T04:57:45;9.00;;;7.33;;
15931;SDS011;8065;49.520;11.284;2023-03-21T05:00:12;9.17;;;6.90;;
15931;SDS011;8065;49.520;11.284;2023-03-21T05:02:41;9.47;;;7.20;;
15931;SDS011;8065;49.520;11.284;2023-03-21T05:05:07;11.13;;;8.00;;
15931;SDS011;8065;49.520;11.284;2023-03-21T05:07:36;10.03;;;7.77;;
15931;SDS011;8065;49.520;11.284;2023-03-21T05:10:03;10.00;;;7.73;;
15931;SDS011;8065;49.520;11.284;2023-03-21T05:12:31;9.00;;;7.10;;
15931;SDS011;8065;49.520;11.284;2023-03-21T05:14:57;9.50;;;7.37;;
15931;SDS011;8065;49.520;11.284;2023-03-21T05:17:24;9.60;;;7.23;;
15931;SDS011;8065;49.520;11.284;2023-03-21T05:19:54;7.70;;;7.00;;
15931;SDS011;8065;49.520;11.284;2023-03-21T05:22:21;7.63;;;6.83;;
15931;SDS011;8065;49.520;11.284;2023-03-21T05:24:50;9.13;;;6.33;;
15931;SDS011;8065;49.520;11.284;2023-03-21T05:27:19;7.43;;;5.87;;
15931;SDS011;8065;49.520;11.284;2023-03-21T05:30:01;9.17;;;6.30;;
15931;SDS011;8065;49.520;11.284;2023-03-21T05:32:31;8.27;;;7.10;;
15931;SDS011;8065;49.520;11.284;2023-03-21T05:34:59;13.00;;;6.30;;
15931;SDS011;8065;49.520;11.284;2023-03-21T05:37:26;7.23;;;6.20;;
15931;SDS011;8065;49.520;11.284;2023-03-21T05:39:53;6.73;;;6.03;;
15931;SDS011;8065;49.520;11.284;2023-03-21T05:42:20;7.27;;;5.67;;
15931;SDS011;8065;49.520;11.284;2023-03-21T05:44:46;8.57;;;5.97;;
15931;SDS011;8065;49.520;11.284;2023-03-21T05:47:13;9.27;;;6.30;;
15931;SDS011;8065;49.520;11.284;2023-03-21T05:49:40;8.50;;;6.30;;
15931;SDS011;8065;49.520;11.284;2023-03-21T05:52:09;10.07;;;7.10;;
15931;SDS011;8065;49.520;11.284;2023-03-21T05:54:35;7.87;;;6.70;;
15931;SDS011;8065;49.520;11.284;2023-03-21T05:57:02;9.60;;;7.10;;
15931;SDS011;8065;49.520;11.284;2023-03-21T05:59:29;8.77;;;7.47;;
15931;SDS011;8065;49.520;11.284;2023-03-21T06:01:56;8.20;;;7.00;;
15931;SDS011;8065;49.520;11.284;2023-03-21T06:04:22;10.63;;;6.57;;
15931;SDS011;8065;49.520;11.284;2023-03-21T06:06:49;8.23;;;7.10;;
15931;SDS011;8065;49.520;11.284;2023-03-21T06:09:19;9.33;;;7.40;;
15931;SDS011;8065;49.520;11.284;2023-03-21T06:11:46;8.83;;;6.87;;
15931;SDS011;8065;49.520;11.284;2023-03-21T06:14:15;7.73;;;6.47;;
15931;SDS011;8065;49.520;11.284;2023-03-21T06:16:42;10.13;;;7.07;;
15931;SDS011;8065;49.520;11.284;2023-03-21T06:19:08;9.00;;;7.10;;
15931;SDS011;8065;49.520;11.284;2023-03-21T06:21:35;8.87;;;6.80;;
15931;SDS011;8065;49.520;11.284;2023-03-21T06:24:02;10.40;;;7.00;;
15931;SDS011;8065;49.520;11.284;2023-03-21T06:26:29;8.13;;;6.83;;
15931;SDS011;8065;49.520;11.284;2023-03-21T06:28:56;7.47;;;6.20;;
15931;SDS011;8065;49.520;11.284;2023-03-21T06:31:22;11.10;;;6.43;;
15931;SDS011;8065;49.520;11.284;2023-03-21T06:33:50;8.30;;;6.80;;
15931;SDS011;8065;49.520;11.284;2023-03-21T06:36:17;8.07;;;6.30;;
15931;SDS011;8065;49.520;11.284;2023-03-21T06:38:44;7.67;;;6.27;;
15931;SDS011;8065;49.520;11.284;2023-03-21T06:41:12;9.17;;;6.50;;
15931;SDS011;8065;49.520;11.284;2023-03-21T06:43:41;8.83;;;6.47;;
15931;SDS011;8065;49.520;11.284;2023-03-21T06:46:07;7.57;;;6.13;;
15931;SDS011;8065;49.520;11.284;2023-03-21T06:48:33;7.83;;;6.10;;
15931;SDS011;8065;49.520;11.284;2023-03-21T06:51:01;7.50;;;6.50;;
15931;SDS011;8065;49.520;11.284;2023-03-21T06:53:28;7.33;;;6.50;;
15931;SDS011;8065;49.520;11.284;2023-03-21T06:55:56;7.27;;;5.90;;
15931;SDS011;8065;49.520;11.284;2023-03-21T06:58:23;8.03;;;6.30;;
15931;SDS011;8065;49.520;11.284;2023-03-21T07:00:51;9.17;;;6.10;;
15931;SDS011;8065;49.520;11.284;2023-03-21T07:03:17;7.43;;;6.40;;
15931;SDS011;8065;49.520;11.284;2023-03-21T07:05:44;8.57;;;6.83;;
15931;SDS011;8065;49.520;11.284;2023-03-21T07:08:10;8.23;;;6.70;;
15931;SDS011;8065;49.520;11.284;2023-03-21T07:10:38;6.50;;;5.80;;
15931;SDS011;8065;49.520;11.284;2023-03-21T07:13:06;9.23;;;6.50;;
15931;SDS011;8065;49.520;11.284;2023-03-21T07:15:32;8.73;;;5.83;;
15931;SDS011;8065;49.520;11.284;2023-03-21T07:18:03;10.10;;;7.03;;
15931;SDS011;8065;49.520;11.284;2023-03-21T07:20:30;8.30;;;6.83;;
15931;SDS011;8065;49.520;11.284;2023-03-21T07:22:57;7.57;;;6.47;;
15931;SDS011;8065;49.520;11.284;2023-03-21T07:25:23;8.17;;;6.17;;
15931;SDS011;8065;49.520;11.284;2023-03-21T07:27:50;7.27;;;6.17;;
15931;SDS011;8065;49.520;11.284;2023-03-21T07:30:17;9.47;;;7.07;;
15931;SDS011;8065;49.520;11.284;2023-03-21T07:32:43;8.77;;;6.37;;
15931;SDS011;8065;49.520;11.284;2023-03-21T07:35:14;9.40;;;7.07;;
15931;SDS011;8065;49.520;11.284;2023-03-21T07:37:42;9.40;;;7.30;;
15931;SDS011;8065;49.520;11.284;2023-03-21T07:40:09;8.67;;;6.70;;
15931;SDS011;8065;49.520;11.284;2023-03-21T07:42:37;8.07;;;6.60;;
15931;SDS011;8065;49.520;11.284;2023-03-21T07:45:05;11.63;;;7.80;;
15931;SDS011;8065;49.520;11.284;2023-03-21T07:47:33;13.10;;;7.47;;
15931;SDS011;8065;49.520;11.284;2023-03-21T07:50:00;15.30;;;7.97;;
15931;SDS011;8065;49.520;11.284;2023-03-21T07:52:29;8.10;;;6.27;;
15931;SDS011;8065;49.520;11.284;2023-03-21T07:54:56;9.20;;;6.20;;
15931;SDS011;8065;49.520;11.284;2023-03-21T07:57:22;9.07;;;6.03;;
15931;SDS011;8065;49.520;11.284;2023-03-21T07:59:49;7.63;;;5.53;;
15931;SDS011;8065;49.520;11.284;2023-03-21T08:02:16;9.60;;;5.60;;
15931;SDS011;8065;49.520;11.284;2023-03-21T08:04:43;9.50;;;5.87;;
15931;SDS011;8065;49.520;11.284;2023-03-21T08:07:09;6.60;;;5.50;;
15931;SDS011;8065;49.520;11.284;2023-03-21T08:09:37;9.60;;;5.40;;
15931;SDS011;8065;49.520;11.284;2023-03-21T08:12:04;7.17;;;5.40;;
15931;SDS011;8065;49.520;11.284;2023-03-21T08:14:32;7.60;;;5.70;;
15931;SDS011;8065;49.520;11.284;2023-03-21T08:16:58;9.07;;;6.00;;
15931;SDS011;8065;49.520;11.284;2023-03-21T08:19:25;8.93;;;5.00;;
15931;SDS011;8065;49.520;11.284;2023-03-21T08:21:51;7.17;;;4.83;;
15931;SDS011;8065;49.520;11.284;2023-03-21T08:24:18;6.13;;;4.40;;
15931;SDS011;8065;49.520;11.284;2023-03-21T08:26:46;5.77;;;4.27;;
15931;SDS011;8065;49.520;11.284;2023-03-21T08:29:12;5.30;;;4.30;;
15931;SDS011;8065;49.520;11.284;2023-03-21T08:31:39;7.33;;;4.53;;
15931;SDS011;8065;49.520;11.284;2023-03-21T08:34:06;8.93;;;4.50;;
15931;SDS011;8065;49.520;11.284;2023-03-21T08:36:34;5.03;;;4.07;;
15931;SDS011;8065;49.520;11.284;2023-03-21T08:39:02;6.67;;;3.90;;
15931;SDS011;8065;49.520;11.284;2023-03-21T08:41:30;8.43;;;4.17;;
15931;SDS011;8065;49.520;11.284;2023-03-21T08:43:58;6.47;;;4.17;;
15931;SDS011;8065;49.520;11.284;2023-03-21T08:46:24;5.37;;;3.17;;
15931;SDS011;8065;49.520;11.284;2023-03-21T08:48:51;5.57;;;3.30;;
15931;SDS011;8065;49.520;11.284;2023-03-21T08:51:18;6.27;;;3.40;;
15931;SDS011;8065;49.520;11.284;2023-03-21T08:53:45;6.53;;;3.73;;
15931;SDS011;8065;49.520;11.284;2023-03-21T08:56:11;5.50;;;3.53;;
15931;SDS011;8065;49.520;11.284;2023-03-21T08:58:38;6.13;;;3.60;;
15931;SDS011;8065;49.520;11.284;2023-03-21T09:01:06;6.37;;;3.67;;
15931;SDS011;8065;49.520;11.284;2023-03-21T09:03:39;7.70;;;3.37;;
15931;SDS011;8065;49.520;11.284;2023-03-21T09:06:06;4.03;;;3.50;;
15931;SDS011;8065;49.520;11.284;2023-03-21T09:08:35;5.17;;;3.43;;
15931;SDS011;8065;49.520;11.284;2023-03-21T09:11:01;5.87;;;3.27;;
15931;SDS011;8065;49.520;11.284;2023-03-21T09:13:28;7.37;;;3.93;;
15931;SDS011;8065;49.520;11.284;2023-03-21T09:15:54;5.97;;;3.13;;
15931;SDS011;8065;49.520;11.284;2023-03-21T09:18:23;6.80;;;3.30;;
15931;SDS011;8065;49.520;11.284;2023-03-21T09:21:09;5.60;;;3.87;;
15931;SDS011;8065;49.520;11.284;2023-03-21T09:23:36;8.53;;;3.73;;
15931;SDS011;8065;49.520;11.284;2023-03-21T09:26:03;9.93;;;3.97;;
15931;SDS011;8065;49.520;11.284;2023-03-21T09:28:30;7.33;;;3.97;;
15931;SDS011;8065;49.520;11.284;2023-03-21T09:30:57;7.67;;;3.70;;
15931;SDS011;8065;49.520;11.284;2023-03-21T09:33:26;10.17;;;3.90;;
15931;SDS011;8065;49.520;11.284;2023-03-21T09:35:53;4.80;;;3.30;;
15931;SDS011;8065;49.520;11.284;2023-03-21T09:38:20;6.83;;;3.63;;
15931;SDS011;8065;49.520;11.284;2023-03-21T09:40:50;5.43;;;3.67;;
15931;SDS011;8065;49.520;11.284;2023-03-21T09:43:31;6.27;;;3.40;;
15931;SDS011;8065;49.520;11.284;2023-03-21T09:46:08;5.60;;;3.80;;
15931;SDS011;8065;49.520;11.284;2023-03-21T09:48:48;8.40;;;4.20;;
15931;SDS011;8065;49.520;11.284;2023-03-21T09:51:21;8.67;;;4.47;;
15931;SDS011;8065;49.520;11.284;2023-03-21T09:53:52;6.77;;;4.10;;
15931;SDS011;8065;49.520;11.284;2023-03-21T09:56:22;8.27;;;4.43;;
15931;SDS011;8065;49.520;11.284;2023-03-21T09:58:50;5.57;;;4.20;;
15931;SDS011;8065;49.520;11.284;2023-03-21T10:01:20;6.07;;;3.47;;
15931;SDS011;8065;49.520;11.284;2023-03-21T10:03:53;5.43;;;3.90;;
15931;SDS011;8065;49.520;11.284;2023-03-21T10:06:23;5.67;;;3.60;;
15931;SDS011;8065;49.520;11.284;2023-03-21T10:08:54;5.47;;;3.70;;
15931;SDS011;8065;49.520;11.284;2023-03-21T10:11:24;4.97;;;3.70;;
15931;SDS011;8065;49.520;11.284;2023-03-21T10:13:54;5.23;;;3.53;;
15931;SDS011;8065;49.520;11.284;2023-03-21T10:16:24;7.30;;;3.40;;
15931;SDS011;8065;49.520;11.284;2023-03-21T10:18:55;8.23;;;4.03;;
15931;SDS011;8065;49.520;11.284;2023-03-21T10:21:22;9.53;;;4.30;;
15931;SDS011;8065;49.520;11.284;2023-03-21T10:23:52;4.23;;;3.60;;
15931;SDS011;8065;49.520;11.284;2023-03-21T10:26:21;4.33;;;3.23;;
15931;SDS011;8065;49.520;11.284;2023-03-21T10:28:50;4.40;;;3.27;;
15931;SDS011;8065;49.520;11.284;2023-03-21T10:31:19;4.37;;;3.30;;
15931;SDS011;8065;49.520;11.284;2023-03-21T10:33:49;7.60;;;3.77;;
15931;SDS011;8065;49.520;11.284;2023-03-21T10:36:18;5.37;;;3.47;;
15931;SDS011;8065;49.520;11.284;2023-03-21T10:38:47;3.77;;;3.37;;
15931;SDS011;8065;49.520;11.284;2023-03-21T10:41:15;5.20;;;3.60;;
15931;SDS011;8065;49.520;11.284;2023-03-21T10:43:42;6.40;;;3.30;;
15931;SDS011;8065;49.520;11.284;2023-03-21T10:46:10;5.67;;;3.40;;
15931;SDS011;8065;49.520;11.284;2023-03-21T10:48:39;5.83;;;3.50;;
15931;SDS011;8065;49.520;11.284;2023-03-21T10:51:11;5.07;;;2.93;;
15931;SDS011;8065;49.520;11.284;2023-03-21T10:53:46;4.33;;;2.90;;
15931;SDS011;8065;49.520;11.284;2023-03-21T10:56:16;6.83;;;3.53;;
15931;SDS011;8065;49.520;11.284;2023-03-21T10:58:47;5.53;;;3.43;;
15931;SDS011;8065;49.520;11.284;2023-03-21T11:01:21;6.13;;;3.43;;
15931;SDS011;8065;49.520;11.284;2023-03-21T11:03:55;5.50;;;3.60;;
15931;SDS011;8065;49.520;11.284;2023-03-21T11:06:28;5.80;;;3.30;;
15931;SDS011;8065;49.520;11.284;2023-03-21T11:09:00;5.97;;;3.27;;
15931;SDS011;8065;49.520;11.284;2023-03-21T11:11:32;5.43;;;3.40;;
15931;SDS011;8065;49.520;11.284;2023-03-21T11:14:02;3.97;;;2.97;;
15931;SDS011;8065;49.520;11.284;2023-03-21T11:16:34;5.97;;;3.13;;
15931;SDS011;8065;49.520;11.284;2023-03-21T11:19:11;6.10;;;3.23;;
15931;SDS011;8065;49.520;11.284;2023-03-21T11:21:39;4.80;;;3.03;;
15931;SDS011;8065;49.520;11.284;2023-03-21T11:24:09;4.23;;;2.77;;
15931;SDS011;8065;49.520;11.284;2023-03-21T11:26:39;5.13;;;2.80;;
15931;SDS011;8065;49.520;11.284;2023-03-21T11:29:09;4.33;;;3.20;;
15931;SDS011;8065;49.520;11.284;2023-03-21T11:31:42;8.43;;;5.80;;
15931;SDS011;8065;49.520;11.284;2023-03-21T11:34:08;4.47;;;3.20;;
15931;SDS011;8065;49.520;11.284;2023-03-21T11:36:49;5.47;;;3.50;;
15931;SDS011;8065;49.520;11.284;2023-03-21T11:39:26;5.67;;;3.43;;
15931;SDS011;8065;49.520;11.284;2023-03-21T11:41:56;3.70;;;2.93;;
15931;SDS011;8065;49.520;11.284;2023-03-21T11:44:24;4.23;;;2.50;;
15931;SDS011;8065;49.520;11.284;2023-03-21T11:46:54;3.77;;;2.70;;
15931;SDS011;8065;49.520;11.284;2023-03-21T11:49:21;5.40;;;2.70;;
15931;SDS011;8065;49.520;11.284;2023-03-21T11:51:51;3.27;;;2.47;;
15931;SDS011;8065;49.520;11.284;2023-03-21T11:54:27;5.03;;;2.80;;
15931;SDS011;8065;49.520;11.284;2023-03-21T11:57:01;4.20;;;2.70;;
15931;SDS011;8065;49.520;11.284;2023-03-21T12:03:12;2.10;;;1.90;;
15931;SDS011;8065;49.520;11.284;2023-03-21T12:06:09;5.10;;;2.40;;
15931;SDS011;8065;49.520;11.284;2023-03-21T12:08:43;3.47;;;2.50;;
15931;SDS011;8065;49.520;11.284;2023-03-21T12:11:20;4.17;;;2.40;;
15931;SDS011;8065;49.520;11.284;2023-03-21T12:13:57;2.70;;;2.40;;
15931;SDS011;8065;49.520;11.284;2023-03-21T12:16:47;4.33;;;2.57;;
15931;SDS011;8065;49.520;11.284;2023-03-21T12:19:30;2.97;;;2.50;;
15931;SDS011;8065;49.520;11.284;2023-03-21T12:22:09;4.90;;;2.50;;
15931;SDS011;8065;49.520;11.284;2023-03-21T12:24:45;4.50;;;2.50;;
15931;SDS011;8065;49.520;11.284;2023-03-21T12:27:18;3.87;;;2.33;;
15931;SDS011;8065;49.520;11.284;2023-03-21T12:29:59;3.27;;;2.40;;
15931;SDS011;8065;49.520;11.284;2023-03-21T12:32:39;3.67;;;2.13;;
15931;SDS011;8065;49.520;11.284;2023-03-21T12:35:20;3.77;;;2.63;;
15931;SDS011;8065;49.520;11.284;2023-03-21T12:37:59;3.83;;;2.33;;
15931;SDS011;8065;49.520;11.284;2023-03-21T12:40:43;5.10;;;3.17;;
15931;SDS011;8065;49.520;11.284;2023-03-21T12:43:23;3.97;;;2.53;;
15931;SDS011;8065;49.520;11.284;2023-03-21T12:45:57;4.23;;;2.90;;
15931;SDS011;8065;49.520;11.284;2023-03-21T12:48:29;3.60;;;2.87;;
15931;SDS011;8065;49.520;11.284;2023-03-21T12:51:02;5.13;;;3.10;;
15931;SDS011;8065;49.520;11.284;2023-03-21T12:53:37;4.53;;;3.23;;
15931;SDS011;8065;49.520;11.284;2023-03-21T12:56:10;4.83;;;3.77;;
15931;SDS011;8065;49.520;11.284;2023-03-21T12:58:45;3.63;;;3.00;;
15931;SDS011;8065;49.520;11.284;2023-03-21T13:01:15;3.60;;;3.10;;
15931;SDS011;8065;49.520;11.284;2023-03-21T13:03:47;4.17;;;3.00;;
15931;SDS011;8065;49.520;11.284;2023-03-21T13:06:17;3.47;;;3.17;;
15931;SDS011;8065;49.520;11.284;2023-03-21T13:08:50;4.07;;;3.10;;
15931;SDS011;8065;49.520;11.284;2023-03-21T13:11:22;2.93;;;2.67;;
15931;SDS011;8065;49.520;11.284;2023-03-21T13:13:55;3.50;;;3.20;;
15931;SDS011;8065;49.520;11.284;2023-03-21T13:16:28;4.40;;;3.43;;
15931;SDS011;8065;49.520;11.284;2023-03-21T13:19:01;3.20;;;2.83;;
15931;SDS011;8065;49.520;11.284;2023-03-21T13:21:38;4.67;;;3.50;;
15931;SDS011;8065;49.520;11.284;2023-03-21T13:24:17;4.53;;;3.80;;
15931;SDS011;8065;49.520;11.284;2023-03-21T13:26:58;3.67;;;3.20;;
15931;SDS011;8065;49.520;11.284;2023-03-21T13:29:30;5.60;;;3.30;;
15931;SDS011;8065;49.520;11.284;2023-03-21T13:32:05;4.00;;;2.83;;
15931;SDS011;8065;49.520;11.284;2023-03-21T13:34:34;3.57;;;2.77;;
15931;SDS011;8065;49.520;11.284;2023-03-21T13:37:04;3.87;;;2.70;;
15931;SDS011;8065;49.520;11.284;2023-03-21T13:39:30;3.50;;;2.80;;
15931;SDS011;8065;49.520;11.284;2023-03-21T13:42:01;3.33;;;3.03;;
15931;SDS011;8065;49.520;11.284;2023-03-21T13:44:38;3.87;;;3.27;;
15931;SDS011;8065;49.520;11.284;2023-03-21T13:47:21;3.43;;;3.10;;
15931;SDS011;8065;49.520;11.284;2023-03-21T13:50:20;3.57;;;3.27;;
15931;SDS011;8065;49.520;11.284;2023-03-21T13:55:45;4.07;;;3.27;;
15931;SDS011;8065;49.520;11.284;2023-03-21T13:58:22;3.97;;;3.00;;
15931;SDS011;8065;49.520;11.284;2023-03-21T14:03:55;3.97;;;3.30;;
15931;SDS011;8065;49.520;11.284;2023-03-21T14:06:24;2.67;;;2.47;;
15931;SDS011;8065;49.520;11.284;2023-03-21T14:08:59;3.07;;;2.83;;
15931;SDS011;8065;49.520;11.284;2023-03-21T14:11:26;4.47;;;3.10;;
15931;SDS011;8065;49.520;11.284;2023-03-21T14:13:56;3.17;;;2.83;;
15931;SDS011;8065;49.520;11.284;2023-03-21T14:16:25;3.50;;;3.20;;
15931;SDS011;8065;49.520;11.284;2023-03-21T14:18:54;3.27;;;2.97;;
15931;SDS011;8065;49.520;11.284;2023-03-21T14:21:22;2.90;;;2.60;;
15931;SDS011;8065;49.520;11.284;2023-03-21T14:23:57;3.97;;;3.00;;
15931;SDS011;8065;49.520;11.284;2023-03-21T14:26:25;2.97;;;2.60;;
15931;SDS011;8065;49.520;11.284;2023-03-21T14:28:54;3.43;;;2.93;;
15931;SDS011;8065;49.520;11.284;2023-03-21T14:31:21;3.67;;;3.33;;
15931;SDS011;8065;49.520;11.284;2023-03-21T14:33:50;3.57;;;2.80;;
15931;SDS011;8065;49.520;11.284;2023-03-21T14:36:19;3.10;;;2.80;;
15931;SDS011;8065;49.520;11.284;2023-03-21T14:41:43;3.77;;;2.67;;
15931;SDS011;8065;49.520;11.284;2023-03-21T14:44:14;3.00;;;2.60;;
15931;SDS011;8065;49.520;11.284;2023-03-21T14:46:49;3.63;;;3.33;;
15931;SDS011;8065;49.520;11.284;2023-03-21T14:49:22;3.40;;;3.10;;
15931;SDS011;8065;49.520;11.284;2023-03-21T14:51:52;3.97;;;2.83;;
15931;SDS011;8065;49.520;11.284;2023-03-21T14:54:20;3.23;;;2.80;;
15931;SDS011;8065;49.520;11.284;2023-03-21T14:56:49;3.40;;;2.97;;
15931;SDS011;8065;49.520;11.284;2023-03-21T14:59:18;5.07;;;3.00;;
15931;SDS011;8065;49.520;11.284;2023-03-21T15:01:48;3.57;;;2.90;;
15931;SDS011;8065;49.520;11.284;2023-03-21T15:04:16;2.97;;;2.63;;
15931;SDS011;8065;49.520;11.284;2023-03-21T15:06:52;2.90;;;2.57;;
15931;SDS011;8065;49.520;11.284;2023-03-21T15:09:21;4.20;;;2.50;;
15931;SDS011;8065;49.520;11.284;2023-03-21T15:11:51;3.20;;;2.30;;
15931;SDS011;8065;49.520;11.284;2023-03-21T15:14:20;2.67;;;2.37;;
15931;SDS011;8065;49.520;11.284;2023-03-21T15:16:51;3.57;;;2.40;;
15931;SDS011;8065;49.520;11.284;2023-03-21T15:19:20;2.63;;;2.20;;